sensor_id;sensor_type;location;lat;lon;timestamp;P1;durP1;ratioP1;P2;durP2;ratioP2
12810;SDS011;6470;47.654;7.896;2023-02-21T00:01:44;0.10;;;0.10;;
12810;SDS011;6470;47.654;7.896;2023-02-21T00:04:28;0.20;;;0.20;;
12810;SDS011;6470;47.654;7.896;2023-02-21T00:07:12;0.10;;;0.10;;
12810;SDS011;6470;47.654;7.896;2023-02-21T00:09:56;0.10;;;0.10;;
12810;SDS011;6470;47.654;7.896;2023-02-21T00:12:40;0.10;;;0.10;;
12810;SDS011;6470;47.654;7.896;2023-02-21T00:15:24;0.10;;;0.10;;
12810;SDS011;6470;47.654;7.896;2023-02-21T00:18:08;0.10;;;0.10;;
12810;SDS011;6470;47.654;7.896;2023-02-21T00:20:55;0.10;;;0.10;;
12810;SDS011;6470;47.654;7.896;2023-02-21T00:23:40;0.20;;;0.20;;
12810;SDS011;6470;47.654;7.896;2023-02-21T00:26:24;0.20;;;0.20;;
12810;SDS011;6470;47.654;7.896;2023-02-21T00:29:08;0.22;;;0.22;;
12810;SDS011;6470;47.654;7.896;2023-02-21T00:31:53;0.10;;;0.10;;
12810;SDS011;6470;47.654;7.896;2023-02-21T00:34:37;0.20;;;0.20;;
12810;SDS011;6470;47.654;7.896;2023-02-21T00:37:21;0.15;;;0.15;;
12810;SDS011;6470;47.654;7.896;2023-02-21T00:40:06;0.10;;;0.10;;
12810;SDS011;6470;47.654;7.896;2023-02-21T00:42:50;0.10;;;0.10;;
12810;SDS011;6470;47.654;7.896;2023-02-21T00:45:34;0.10;;;0.10;;
12810;SDS011;6470;47.654;7.896;2023-02-21T00:48:19;0.10;;;0.10;;
12810;SDS011;6470;47.654;7.896;2023-02-21T00:51:04;0.10;;;0.10;;
12810;SDS011;6470;47.654;7.896;2023-02-21T00:53:48;0.20;;;0.20;;
12810;SDS011;6470;47.654;7.896;2023-02-21T00:56:32;0.10;;;0.10;;
12810;SDS011;6470;47.654;7.896;2023-02-21T00:59:16;0.10;;;0.10;;
12810;SDS011;6470;47.654;7.896;2023-02-21T01:02:01;0.10;;;0.10;;
12810;SDS011;6470;47.654;7.896;2023-02-21T01:04:45;0.10;;;0.10;;
12810;SDS011;6470;47.654;7.896;2023-02-21T01:07:29;0.30;;;0.30;;
12810;SDS011;6470;47.654;7.896;2023-02-21T01:10:13;0.20;;;0.20;;
12810;SDS011;6470;47.654;7.896;2023-02-21T01:12:57;0.17;;;0.17;;
12810;SDS011;6470;47.654;7.896;2023-02-21T01:15:41;0.20;;;0.20;;
12810;SDS011;6470;47.654;7.896;2023-02-21T01:18:26;0.17;;;0.17;;
12810;SDS011;6470;47.654;7.896;2023-02-21T01:21:14;0.20;;;0.20;;
12810;SDS011;6470;47.654;7.896;2023-02-21T01:24:00;0.10;;;0.10;;
12810;SDS011;6470;47.654;7.896;2023-02-21T01:26:44;0.10;;;0.10;;
12810;SDS011;6470;47.654;7.896;2023-02-21T01:29:28;0.10;;;0.10;;
12810;SDS011;6470;47.654;7.896;2023-02-21T01:32:12;0.10;;;0.10;;
12810;SDS011;6470;47.654;7.896;2023-02-21T01:34:57;0.10;;;0.10;;
12810;SDS011;6470;47.654;7.896;2023-02-21T01:37:42;0.10;;;0.10;;
12810;SDS011;6470;47.654;7.896;2023-02-21T01:40:26;0.10;;;0.10;;
12810;SDS011;6470;47.654;7.896;2023-02-21T01:43:28;0.20;;;0.20;;
12810;SDS011;6470;47.654;7.896;2023-02-21T01:46:14;0.10;;;0.10;;
12810;SDS011;6470;47.654;7.896;2023-02-21T01:49:01;0.10;;;0.10;;
12810;SDS011;6470;47.654;7.896;2023-02-21T01:51:54;0.20;;;0.20;;
12810;SDS011;6470;47.654;7.896;2023-02-21T01:54:41;0.10;;;0.10;;
12810;SDS011;6470;47.654;7.896;2023-02-21T01:57:30;0.20;;;0.20;;
12810;SDS011;6470;47.654;7.896;2023-02-21T02:00:15;0.20;;;0.20;;
12810;SDS011;6470;47.654;7.896;2023-02-21T02:03:01;0.20;;;0.20;;
12810;SDS011;6470;47.654;7.896;2023-02-21T02:05:58;0.20;;;0.20;;
12810;SDS011;6470;47.654;7.896;2023-02-21T02:08:45;0.10;;;0.10;;
12810;SDS011;6470;47.654;7.896;2023-02-21T02:17:26;0.20;;;0.20;;
12810;SDS011;6470;47.654;7.896;2023-02-21T02:26:18;0.10;;;0.10;;
12810;SDS011;6470;47.654;7.896;2023-02-21T02:32:13;0.20;;;0.20;;
12810;SDS011;6470;47.654;7.896;2023-02-21T02:37:38;0.10;;;0.10;;
12810;SDS011;6470;47.654;7.896;2023-02-21T02:40:15;0.20;;;0.20;;
12810;SDS011;6470;47.654;7.896;2023-02-21T02:48:17;0.10;;;0.10;;
12810;SDS011;6470;47.654;7.896;2023-02-21T02:50:48;0.10;;;0.10;;
12810;SDS011;6470;47.654;7.896;2023-02-21T02:53:22;0.20;;;0.20;;
12810;SDS011;6470;47.654;7.896;2023-02-21T02:55:55;0.20;;;0.20;;
12810;SDS011;6470;47.654;7.896;2023-02-21T02:58:23;0.20;;;0.20;;
12810;SDS011;6470;47.654;7.896;2023-02-21T03:14:54;0.30;;;0.30;;
12810;SDS011;6470;47.654;7.896;2023-02-21T03:17:36;0.22;;;0.22;;
12810;SDS011;6470;47.654;7.896;2023-02-21T03:20:07;0.10;;;0.10;;
12810;SDS011;6470;47.654;7.896;2023-02-21T03:22:36;0.10;;;0.10;;
12810;SDS011;6470;47.654;7.896;2023-02-21T03:25:04;0.10;;;0.10;;
12810;SDS011;6470;47.654;7.896;2023-02-21T03:27:30;0.20;;;0.20;;
12810;SDS011;6470;47.654;7.896;2023-02-21T03:29:58;0.20;;;0.20;;
12810;SDS011;6470;47.654;7.896;2023-02-21T03:32:32;0.20;;;0.20;;
12810;SDS011;6470;47.654;7.896;2023-02-21T03:35:09;0.30;;;0.30;;
12810;SDS011;6470;47.654;7.896;2023-02-21T03:37:36;0.20;;;0.20;;
12810;SDS011;6470;47.654;7.896;2023-02-21T03:40:11;0.10;;;0.10;;
12810;SDS011;6470;47.654;7.896;2023-02-21T03:42:42;0.10;;;0.10;;
12810;SDS011;6470;47.654;7.896;2023-02-21T03:45:08;0.15;;;0.15;;
12810;SDS011;6470;47.654;7.896;2023-02-21T03:47:34;0.10;;;0.10;;
12810;SDS011;6470;47.654;7.896;2023-02-21T03:50:00;0.20;;;0.20;;
12810;SDS011;6470;47.654;7.896;2023-02-21T03:52:26;0.20;;;0.20;;
12810;SDS011;6470;47.654;7.896;2023-02-21T03:54:52;0.20;;;0.20;;
12810;SDS011;6470;47.654;7.896;2023-02-21T03:57:18;0.10;;;0.10;;
12810;SDS011;6470;47.654;7.896;2023-02-21T03:59:43;0.20;;;0.20;;
12810;SDS011;6470;47.654;7.896;2023-02-21T04:02:09;0.20;;;0.20;;
12810;SDS011;6470;47.654;7.896;2023-02-21T04:04:35;0.10;;;0.10;;
12810;SDS011;6470;47.654;7.896;2023-02-21T04:07:01;0.30;;;0.30;;
12810;SDS011;6470;47.654;7.896;2023-02-21T04:09:27;0.10;;;0.10;;
12810;SDS011;6470;47.654;7.896;2023-02-21T04:11:52;0.15;;;0.15;;
12810;SDS011;6470;47.654;7.896;2023-02-21T04:14:18;0.20;;;0.20;;
12810;SDS011;6470;47.654;7.896;2023-02-21T04:16:44;0.20;;;0.20;;
12810;SDS011;6470;47.654;7.896;2023-02-21T04:19:10;0.10;;;0.10;;
12810;SDS011;6470;47.654;7.896;2023-02-21T04:21:35;0.20;;;0.20;;
12810;SDS011;6470;47.654;7.896;2023-02-21T04:24:01;0.10;;;0.10;;
12810;SDS011;6470;47.654;7.896;2023-02-21T04:26:27;0.10;;;0.10;;
12810;SDS011;6470;47.654;7.896;2023-02-21T04:28:54;0.20;;;0.20;;
12810;SDS011;6470;47.654;7.896;2023-02-21T04:31:20;0.20;;;0.20;;
12810;SDS011;6470;47.654;7.896;2023-02-21T04:33:47;0.15;;;0.15;;
12810;SDS011;6470;47.654;7.896;2023-02-21T04:36:13;0.20;;;0.20;;
12810;SDS011;6470;47.654;7.896;2023-02-21T04:38:39;0.10;;;0.10;;
12810;SDS011;6470;47.654;7.896;2023-02-21T04:41:05;0.20;;;0.20;;
12810;SDS011;6470;47.654;7.896;2023-02-21T04:43:31;0.20;;;0.20;;
12810;SDS011;6470;47.654;7.896;2023-02-21T04:45:57;0.20;;;0.20;;
12810;SDS011;6470;47.654;7.896;2023-02-21T04:48:22;0.13;;;0.13;;
12810;SDS011;6470;47.654;7.896;2023-02-21T04:50:48;0.10;;;0.10;;
12810;SDS011;6470;47.654;7.896;2023-02-21T04:53:14;0.10;;;0.10;;
12810;SDS011;6470;47.654;7.896;2023-02-21T04:55:40;0.20;;;0.20;;
12810;SDS011;6470;47.654;7.896;2023-02-21T04:58:06;0.30;;;0.30;;
12810;SDS011;6470;47.654;7.896;2023-02-21T05:00:31;0.10;;;0.10;;
12810;SDS011;6470;47.654;7.896;2023-02-21T05:02:57;0.10;;;0.10;;
12810;SDS011;6470;47.654;7.896;2023-02-21T05:05:23;0.10;;;0.10;;
12810;SDS011;6470;47.654;7.896;2023-02-21T05:07:48;0.20;;;0.20;;
12810;SDS011;6470;47.654;7.896;2023-02-21T05:10:15;0.10;;;0.10;;
12810;SDS011;6470;47.654;7.896;2023-02-21T05:12:42;0.10;;;0.10;;
12810;SDS011;6470;47.654;7.896;2023-02-21T05:15:08;0.10;;;0.10;;
12810;SDS011;6470;47.654;7.896;2023-02-21T05:17:36;0.10;;;0.10;;
12810;SDS011;6470;47.654;7.896;2023-02-21T05:20:02;0.20;;;0.20;;
12810;SDS011;6470;47.654;7.896;2023-02-21T05:22:28;0.20;;;0.20;;
12810;SDS011;6470;47.654;7.896;2023-02-21T05:24:54;0.10;;;0.10;;
12810;SDS011;6470;47.654;7.896;2023-02-21T05:27:21;0.20;;;0.20;;
12810;SDS011;6470;47.654;7.896;2023-02-21T05:29:48;0.10;;;0.10;;
12810;SDS011;6470;47.654;7.896;2023-02-21T05:32:16;0.30;;;0.30;;
12810;SDS011;6470;47.654;7.896;2023-02-21T05:34:43;0.20;;;0.20;;
12810;SDS011;6470;47.654;7.896;2023-02-21T05:37:11;0.10;;;0.10;;
12810;SDS011;6470;47.654;7.896;2023-02-21T05:39:40;0.20;;;0.20;;
12810;SDS011;6470;47.654;7.896;2023-02-21T05:42:06;0.10;;;0.10;;
12810;SDS011;6470;47.654;7.896;2023-02-21T05:44:32;0.00;;;0.00;;
12810;SDS011;6470;47.654;7.896;2023-02-21T05:46:58;0.00;;;0.00;;
12810;SDS011;6470;47.654;7.896;2023-02-21T05:49:24;0.10;;;0.10;;
12810;SDS011;6470;47.654;7.896;2023-02-21T05:51:51;0.00;;;0.00;;
12810;SDS011;6470;47.654;7.896;2023-02-21T05:54:18;0.10;;;0.10;;
12810;SDS011;6470;47.654;7.896;2023-02-21T05:56:45;0.10;;;0.10;;
12810;SDS011;6470;47.654;7.896;2023-02-21T05:59:13;0.20;;;0.20;;
12810;SDS011;6470;47.654;7.896;2023-02-21T06:01:40;0.10;;;0.10;;
12810;SDS011;6470;47.654;7.896;2023-02-21T06:04:06;0.20;;;0.20;;
12810;SDS011;6470;47.654;7.896;2023-02-21T06:06:32;0.20;;;0.20;;
12810;SDS011;6470;47.654;7.896;2023-02-21T06:08:58;0.20;;;0.20;;
12810;SDS011;6470;47.654;7.896;2023-02-21T06:11:26;0.10;;;0.10;;
12810;SDS011;6470;47.654;7.896;2023-02-21T06:13:54;0.30;;;0.30;;
12810;SDS011;6470;47.654;7.896;2023-02-21T06:16:21;0.20;;;0.20;;
12810;SDS011;6470;47.654;7.896;2023-02-21T06:18:55;0.10;;;0.10;;
12810;SDS011;6470;47.654;7.896;2023-02-21T06:21:21;0.15;;;0.15;;
12810;SDS011;6470;47.654;7.896;2023-02-21T06:23:47;0.30;;;0.30;;
12810;SDS011;6470;47.654;7.896;2023-02-21T06:26:13;0.20;;;0.20;;
12810;SDS011;6470;47.654;7.896;2023-02-21T06:28:40;0.22;;;0.22;;
12810;SDS011;6470;47.654;7.896;2023-02-21T06:31:06;0.08;;;0.08;;
12810;SDS011;6470;47.654;7.896;2023-02-21T06:33:32;0.20;;;0.20;;
12810;SDS011;6470;47.654;7.896;2023-02-21T06:36:02;0.20;;;0.20;;
12810;SDS011;6470;47.654;7.896;2023-02-21T06:38:32;0.20;;;0.20;;
12810;SDS011;6470;47.654;7.896;2023-02-21T06:40:59;0.20;;;0.20;;
12810;SDS011;6470;47.654;7.896;2023-02-21T06:43:25;0.20;;;0.20;;
12810;SDS011;6470;47.654;7.896;2023-02-21T06:45:50;0.10;;;0.10;;
12810;SDS011;6470;47.654;7.896;2023-02-21T06:48:16;0.25;;;0.25;;
12810;SDS011;6470;47.654;7.896;2023-02-21T06:50:42;0.10;;;0.10;;
12810;SDS011;6470;47.654;7.896;2023-02-21T06:53:08;0.20;;;0.20;;
12810;SDS011;6470;47.654;7.896;2023-02-21T06:55:34;0.28;;;0.28;;
12810;SDS011;6470;47.654;7.896;2023-02-21T06:58:00;0.10;;;0.10;;
12810;SDS011;6470;47.654;7.896;2023-02-21T07:00:26;0.20;;;0.20;;
12810;SDS011;6470;47.654;7.896;2023-02-21T07:02:52;0.10;;;0.10;;
12810;SDS011;6470;47.654;7.896;2023-02-21T07:05:18;0.20;;;0.20;;
12810;SDS011;6470;47.654;7.896;2023-02-21T07:07:44;0.10;;;0.10;;
12810;SDS011;6470;47.654;7.896;2023-02-21T07:10:10;0.20;;;0.20;;
12810;SDS011;6470;47.654;7.896;2023-02-21T07:12:37;0.30;;;0.30;;
12810;SDS011;6470;47.654;7.896;2023-02-21T07:15:03;0.25;;;0.25;;
12810;SDS011;6470;47.654;7.896;2023-02-21T07:17:29;0.10;;;0.10;;
12810;SDS011;6470;47.654;7.896;2023-02-21T07:19:55;0.10;;;0.10;;
12810;SDS011;6470;47.654;7.896;2023-02-21T07:22:20;0.10;;;0.10;;
12810;SDS011;6470;47.654;7.896;2023-02-21T07:24:53;0.10;;;0.10;;
12810;SDS011;6470;47.654;7.896;2023-02-21T07:27:19;0.30;;;0.30;;
12810;SDS011;6470;47.654;7.896;2023-02-21T07:29:49;0.20;;;0.20;;
12810;SDS011;6470;47.654;7.896;2023-02-21T07:32:15;0.30;;;0.30;;
12810;SDS011;6470;47.654;7.896;2023-02-21T07:34:41;0.17;;;0.17;;
12810;SDS011;6470;47.654;7.896;2023-02-21T07:37:09;0.20;;;0.20;;
12810;SDS011;6470;47.654;7.896;2023-02-21T07:39:35;0.17;;;0.17;;
12810;SDS011;6470;47.654;7.896;2023-02-21T07:42:02;0.10;;;0.10;;
12810;SDS011;6470;47.654;7.896;2023-02-21T07:44:28;0.20;;;0.20;;
12810;SDS011;6470;47.654;7.896;2023-02-21T07:46:55;0.20;;;0.20;;
12810;SDS011;6470;47.654;7.896;2023-02-21T07:49:21;0.10;;;0.10;;
12810;SDS011;6470;47.654;7.896;2023-02-21T07:51:48;0.20;;;0.20;;
12810;SDS011;6470;47.654;7.896;2023-02-21T07:54:15;0.30;;;0.30;;
12810;SDS011;6470;47.654;7.896;2023-02-21T07:56:45;0.10;;;0.10;;
12810;SDS011;6470;47.654;7.896;2023-02-21T07:59:12;0.10;;;0.10;;
12810;SDS011;6470;47.654;7.896;2023-02-21T08:01:38;0.20;;;0.20;;
12810;SDS011;6470;47.654;7.896;2023-02-21T08:04:04;0.20;;;0.20;;
12810;SDS011;6470;47.654;7.896;2023-02-21T08:06:30;0.10;;;0.10;;
12810;SDS011;6470;47.654;7.896;2023-02-21T08:08:58;0.20;;;0.20;;
12810;SDS011;6470;47.654;7.896;2023-02-21T08:11:24;0.10;;;0.10;;
12810;SDS011;6470;47.654;7.896;2023-02-21T08:13:50;0.10;;;0.10;;
12810;SDS011;6470;47.654;7.896;2023-02-21T08:16:15;0.10;;;0.10;;
12810;SDS011;6470;47.654;7.896;2023-02-21T08:18:41;0.10;;;0.10;;
12810;SDS011;6470;47.654;7.896;2023-02-21T08:21:08;0.10;;;0.10;;
12810;SDS011;6470;47.654;7.896;2023-02-21T08:23:35;0.10;;;0.10;;
12810;SDS011;6470;47.654;7.896;2023-02-21T08:26:04;0.10;;;0.10;;
12810;SDS011;6470;47.654;7.896;2023-02-21T08:28:31;0.10;;;0.10;;
12810;SDS011;6470;47.654;7.896;2023-02-21T08:30:57;0.10;;;0.10;;
12810;SDS011;6470;47.654;7.896;2023-02-21T08:33:23;0.20;;;0.20;;
12810;SDS011;6470;47.654;7.896;2023-02-21T08:35:49;0.20;;;0.20;;
12810;SDS011;6470;47.654;7.896;2023-02-21T08:38:17;0.20;;;0.20;;
12810;SDS011;6470;47.654;7.896;2023-02-21T08:40:43;0.10;;;0.10;;
12810;SDS011;6470;47.654;7.896;2023-02-21T08:43:09;0.10;;;0.10;;
12810;SDS011;6470;47.654;7.896;2023-02-21T08:45:35;0.10;;;0.10;;
12810;SDS011;6470;47.654;7.896;2023-02-21T08:48:01;0.10;;;0.10;;
12810;SDS011;6470;47.654;7.896;2023-02-21T08:50:28;0.10;;;0.10;;
12810;SDS011;6470;47.654;7.896;2023-02-21T08:52:54;0.10;;;0.10;;
12810;SDS011;6470;47.654;7.896;2023-02-21T08:55:20;0.10;;;0.10;;
12810;SDS011;6470;47.654;7.896;2023-02-21T08:57:47;0.10;;;0.10;;
12810;SDS011;6470;47.654;7.896;2023-02-21T09:00:15;0.17;;;0.17;;
12810;SDS011;6470;47.654;7.896;2023-02-21T09:02:42;0.10;;;0.10;;
12810;SDS011;6470;47.654;7.896;2023-02-21T09:05:12;0.10;;;0.10;;
12810;SDS011;6470;47.654;7.896;2023-02-21T09:07:40;0.10;;;0.10;;
12810;SDS011;6470;47.654;7.896;2023-02-21T09:10:06;0.10;;;0.10;;
12810;SDS011;6470;47.654;7.896;2023-02-21T09:12:34;0.10;;;0.10;;
12810;SDS011;6470;47.654;7.896;2023-02-21T09:15:01;0.10;;;0.10;;
12810;SDS011;6470;47.654;7.896;2023-02-21T09:17:27;0.10;;;0.10;;
12810;SDS011;6470;47.654;7.896;2023-02-21T09:19:52;0.10;;;0.10;;
12810;SDS011;6470;47.654;7.896;2023-02-21T09:22:18;0.10;;;0.10;;
12810;SDS011;6470;47.654;7.896;2023-02-21T09:24:44;0.10;;;0.10;;
12810;SDS011;6470;47.654;7.896;2023-02-21T09:27:10;0.10;;;0.10;;
12810;SDS011;6470;47.654;7.896;2023-02-21T09:29:36;0.10;;;0.10;;
12810;SDS011;6470;47.654;7.896;2023-02-21T09:32:02;0.10;;;0.10;;
12810;SDS011;6470;47.654;7.896;2023-02-21T09:34:28;0.10;;;0.10;;
12810;SDS011;6470;47.654;7.896;2023-02-21T09:36:54;0.10;;;0.10;;
12810;SDS011;6470;47.654;7.896;2023-02-21T09:39:20;0.10;;;0.10;;
12810;SDS011;6470;47.654;7.896;2023-02-21T09:41:47;0.10;;;0.10;;
12810;SDS011;6470;47.654;7.896;2023-02-21T09:44:22;0.10;;;0.10;;
12810;SDS011;6470;47.654;7.896;2023-02-21T09:46:57;0.10;;;0.10;;
12810;SDS011;6470;47.654;7.896;2023-02-21T09:49:31;0.10;;;0.10;;
12810;SDS011;6470;47.654;7.896;2023-02-21T09:52:03;0.10;;;0.10;;
12810;SDS011;6470;47.654;7.896;2023-02-21T09:54:31;0.10;;;0.10;;
12810;SDS011;6470;47.654;7.896;2023-02-21T09:57:02;0.10;;;0.10;;
12810;SDS011;6470;47.654;7.896;2023-02-21T09:59:29;0.00;;;0.00;;
12810;SDS011;6470;47.654;7.896;2023-02-21T10:07:44;0.10;;;0.10;;
12810;SDS011;6470;47.654;7.896;2023-02-21T10:10:41;0.10;;;0.10;;
12810;SDS011;6470;47.654;7.896;2023-02-21T10:18:51;0.10;;;0.10;;
12810;SDS011;6470;47.654;7.896;2023-02-21T10:21:40;0.10;;;0.10;;
12810;SDS011;6470;47.654;7.896;2023-02-21T10:24:27;0.00;;;0.00;;
12810;SDS011;6470;47.654;7.896;2023-02-21T10:29:28;0.00;;;0.00;;
12810;SDS011;6470;47.654;7.896;2023-02-21T10:32:07;0.00;;;0.00;;
12810;SDS011;6470;47.654;7.896;2023-02-21T10:34:33;0.00;;;0.00;;
12810;SDS011;6470;47.654;7.896;2023-02-21T10:37:05;0.00;;;0.00;;
12810;SDS011;6470;47.654;7.896;2023-02-21T10:39:58;0.00;;;0.00;;
12810;SDS011;6470;47.654;7.896;2023-02-21T10:42:30;0.00;;;0.00;;
12810;SDS011;6470;47.654;7.896;2023-02-21T10:45:07;0.00;;;0.00;;
12810;SDS011;6470;47.654;7.896;2023-02-21T10:47:55;0.10;;;0.10;;
12810;SDS011;6470;47.654;7.896;2023-02-21T10:50:50;0.00;;;0.00;;
12810;SDS011;6470;47.654;7.896;2023-02-21T10:53:34;0.10;;;0.10;;
12810;SDS011;6470;47.654;7.896;2023-02-21T10:56:22;0.03;;;0.03;;
12810;SDS011;6470;47.654;7.896;2023-02-21T10:58:51;0.00;;;0.00;;
12810;SDS011;6470;47.654;7.896;2023-02-21T11:01:18;0.00;;;0.00;;
12810;SDS011;6470;47.654;7.896;2023-02-21T11:03:52;0.00;;;0.00;;
12810;SDS011;6470;47.654;7.896;2023-02-21T11:08:57;0.00;;;0.00;;
12810;SDS011;6470;47.654;7.896;2023-02-21T11:11:40;0.10;;;0.10;;
12810;SDS011;6470;47.654;7.896;2023-02-21T11:14:20;0.00;;;0.00;;
12810;SDS011;6470;47.654;7.896;2023-02-21T11:17:47;0.00;;;0.00;;
12810;SDS011;6470;47.654;7.896;2023-02-21T11:22:19;0.00;;;0.00;;
12810;SDS011;6470;47.654;7.896;2023-02-21T11:24:56;0.10;;;0.10;;
12810;SDS011;6470;47.654;7.896;2023-02-21T11:27:44;0.00;;;0.00;;
12810;SDS011;6470;47.654;7.896;2023-02-21T11:30:22;0.00;;;0.00;;
12810;SDS011;6470;47.654;7.896;2023-02-21T11:32:48;0.00;;;0.00;;
12810;SDS011;6470;47.654;7.896;2023-02-21T11:40:22;0.00;;;0.00;;
12810;SDS011;6470;47.654;7.896;2023-02-21T11:46:02;0.00;;;0.00;;
12810;SDS011;6470;47.654;7.896;2023-02-21T11:54:02;0.00;;;0.00;;
12810;SDS011;6470;47.654;7.896;2023-02-21T12:04:22;0.00;;;0.00;;
12810;SDS011;6470;47.654;7.896;2023-02-21T12:07:10;0.00;;;0.00;;
12810;SDS011;6470;47.654;7.896;2023-02-21T12:09:59;0.00;;;0.00;;
12810;SDS011;6470;47.654;7.896;2023-02-21T12:12:36;0.00;;;0.00;;
12810;SDS011;6470;47.654;7.896;2023-02-21T12:15:25;0.10;;;0.10;;
12810;SDS011;6470;47.654;7.896;2023-02-21T12:18:16;0.00;;;0.00;;
12810;SDS011;6470;47.654;7.896;2023-02-21T12:23:42;0.00;;;0.00;;
12810;SDS011;6470;47.654;7.896;2023-02-21T12:26:25;0.10;;;0.10;;
12810;SDS011;6470;47.654;7.896;2023-02-21T12:29:17;0.10;;;0.10;;
12810;SDS011;6470;47.654;7.896;2023-02-21T12:43:31;0.00;;;0.00;;
12810;SDS011;6470;47.654;7.896;2023-02-21T12:51:57;0.00;;;0.00;;
12810;SDS011;6470;47.654;7.896;2023-02-21T12:57:17;0.00;;;0.00;;
12810;SDS011;6470;47.654;7.896;2023-02-21T12:59:58;0.00;;;0.00;;
12810;SDS011;6470;47.654;7.896;2023-02-21T13:05:29;0.00;;;0.00;;
12810;SDS011;6470;47.654;7.896;2023-02-21T13:08:31;0.00;;;0.00;;
12810;SDS011;6470;47.654;7.896;2023-02-21T13:13:33;0.00;;;0.00;;
12810;SDS011;6470;47.654;7.896;2023-02-21T13:15:59;0.00;;;0.00;;
12810;SDS011;6470;47.654;7.896;2023-02-21T13:18:36;0.00;;;0.00;;
12810;SDS011;6470;47.654;7.896;2023-02-21T13:23:50;0.00;;;0.00;;
12810;SDS011;6470;47.654;7.896;2023-02-21T13:29:37;0.00;;;0.00;;
12810;SDS011;6470;47.654;7.896;2023-02-21T13:32:13;0.00;;;0.00;;
12810;SDS011;6470;47.654;7.896;2023-02-21T13:34:48;0.00;;;0.00;;
12810;SDS011;6470;47.654;7.896;2023-02-21T13:37:27;0.00;;;0.00;;
12810;SDS011;6470;47.654;7.896;2023-02-21T13:39:57;0.00;;;0.00;;
12810;SDS011;6470;47.654;7.896;2023-02-21T13:42:31;0.00;;;0.00;;
12810;SDS011;6470;47.654;7.896;2023-02-21T13:45:13;0.00;;;0.00;;
12810;SDS011;6470;47.654;7.896;2023-02-21T13:50:46;0.00;;;0.00;;
12810;SDS011;6470;47.654;7.896;2023-02-21T14:01:18;0.00;;;0.00;;
12810;SDS011;6470;47.654;7.896;2023-02-21T14:03:54;0.00;;;0.00;;
12810;SDS011;6470;47.654;7.896;2023-02-21T14:06:31;0.00;;;0.00;;
12810;SDS011;6470;47.654;7.896;2023-02-21T14:09:09;0.00;;;0.00;;
12810;SDS011;6470;47.654;7.896;2023-02-21T14:11:48;0.00;;;0.00;;
12810;SDS011;6470;47.654;7.896;2023-02-21T14:17:04;0.00;;;0.00;;
12810;SDS011;6470;47.654;7.896;2023-02-21T14:22:10;0.00;;;0.00;;
12810;SDS011;6470;47.654;7.896;2023-02-21T14:24:49;0.00;;;0.00;;
12810;SDS011;6470;47.654;7.896;2023-02-21T14:29:44;0.00;;;0.00;;
12810;SDS011;6470;47.654;7.896;2023-02-21T14:32:34;0.10;;;0.10;;
12810;SDS011;6470;47.654;7.896;2023-02-21T14:35:13;0.00;;;0.00;;
12810;SDS011;6470;47.654;7.896;2023-02-21T14:40:43;0.00;;;0.00;;
12810;SDS011;6470;47.654;7.896;2023-02-21T15:04:41;0.00;;;0.00;;
12810;SDS011;6470;47.654;7.896;2023-02-21T15:12:49;0.00;;;0.00;;
12810;SDS011;6470;47.654;7.896;2023-02-21T15:15:25;0.00;;;0.00;;
12810;SDS011;6470;47.654;7.896;2023-02-21T15:18:11;0.00;;;0.00;;
12810;SDS011;6470;47.654;7.896;2023-02-21T15:20:51;0.00;;;0.00;;
12810;SDS011;6470;47.654;7.896;2023-02-21T15:23:28;0.00;;;0.00;;
12810;SDS011;6470;47.654;7.896;2023-02-21T15:25:55;0.00;;;0.00;;
12810;SDS011;6470;47.654;7.896;2023-02-21T15:28:24;0.00;;;0.00;;
12810;SDS011;6470;47.654;7.896;2023-02-21T15:31:06;0.10;;;0.10;;
12810;SDS011;6470;47.654;7.896;2023-02-21T15:33:34;0.00;;;0.00;;
12810;SDS011;6470;47.654;7.896;2023-02-21T15:36:04;0.00;;;0.00;;
12810;SDS011;6470;47.654;7.896;2023-02-21T15:41:55;0.00;;;0.00;;
12810;SDS011;6470;47.654;7.896;2023-02-21T15:44:28;0.00;;;0.00;;
12810;SDS011;6470;47.654;7.896;2023-02-21T15:47:16;0.00;;;0.00;;
12810;SDS011;6470;47.654;7.896;2023-02-21T15:50:08;0.00;;;0.00;;
12810;SDS011;6470;47.654;7.896;2023-02-21T15:52:48;0.00;;;0.00;;
12810;SDS011;6470;47.654;7.896;2023-02-21T15:58:19;0.00;;;0.00;;
12810;SDS011;6470;47.654;7.896;2023-02-21T16:00:42;0.00;;;0.00;;
12810;SDS011;6470;47.654;7.896;2023-02-21T16:14:22;0.00;;;0.00;;
12810;SDS011;6470;47.654;7.896;2023-02-21T16:16:58;0.00;;;0.00;;
12810;SDS011;6470;47.654;7.896;2023-02-21T16:19:32;0.00;;;0.00;;
12810;SDS011;6470;47.654;7.896;2023-02-21T16:22:33;0.00;;;0.00;;
12810;SDS011;6470;47.654;7.896;2023-02-21T16:25:11;0.00;;;0.00;;
12810;SDS011;6470;47.654;7.896;2023-02-21T16:27:41;0.00;;;0.00;;
12810;SDS011;6470;47.654;7.896;2023-02-21T16:30:16;0.00;;;0.00;;
12810;SDS011;6470;47.654;7.896;2023-02-21T16:33:03;0.00;;;0.00;;
12810;SDS011;6470;47.654;7.896;2023-02-21T16:35:30;0.00;;;0.00;;
12810;SDS011;6470;47.654;7.896;2023-02-21T16:37:57;0.00;;;0.00;;
12810;SDS011;6470;47.654;7.896;2023-02-21T16:40:25;0.20;;;0.20;;
12810;SDS011;6470;47.654;7.896;2023-02-21T16:42:55;0.10;;;0.10;;
12810;SDS011;6470;47.654;7.896;2023-02-21T16:45:22;0.00;;;0.00;;
12810;SDS011;6470;47.654;7.896;2023-02-21T16:47:49;0.00;;;0.00;;
12810;SDS011;6470;47.654;7.896;2023-02-21T16:50:40;0.00;;;0.00;;
12810;SDS011;6470;47.654;7.896;2023-02-21T16:53:05;0.00;;;0.00;;
12810;SDS011;6470;47.654;7.896;2023-02-21T16:55:36;0.10;;;0.10;;
12810;SDS011;6470;47.654;7.896;2023-02-21T16:58:04;0.00;;;0.00;;
12810;SDS011;6470;47.654;7.896;2023-02-21T17:00:32;0.00;;;0.00;;
12810;SDS011;6470;47.654;7.896;2023-02-21T17:02:58;0.10;;;0.10;;
12810;SDS011;6470;47.654;7.896;2023-02-21T17:05:24;0.10;;;0.10;;
12810;SDS011;6470;47.654;7.896;2023-02-21T17:07:51;0.10;;;0.10;;
12810;SDS011;6470;47.654;7.896;2023-02-21T17:10:19;0.00;;;0.00;;
12810;SDS011;6470;47.654;7.896;2023-02-21T17:12:45;0.10;;;0.10;;
12810;SDS011;6470;47.654;7.896;2023-02-21T17:15:12;0.10;;;0.10;;
12810;SDS011;6470;47.654;7.896;2023-02-21T17:17:37;0.00;;;0.00;;
12810;SDS011;6470;47.654;7.896;2023-02-21T17:20:04;0.10;;;0.10;;
12810;SDS011;6470;47.654;7.896;2023-02-21T17:22:31;0.10;;;0.10;;
12810;SDS011;6470;47.654;7.896;2023-02-21T17:24:56;0.10;;;0.10;;
12810;SDS011;6470;47.654;7.896;2023-02-21T17:27:22;0.00;;;0.00;;
12810;SDS011;6470;47.654;7.896;2023-02-21T17:29:48;0.10;;;0.10;;
12810;SDS011;6470;47.654;7.896;2023-02-21T17:32:14;0.10;;;0.10;;
12810;SDS011;6470;47.654;7.896;2023-02-21T17:34:40;0.10;;;0.10;;
12810;SDS011;6470;47.654;7.896;2023-02-21T17:37:07;0.10;;;0.10;;
12810;SDS011;6470;47.654;7.896;2023-02-21T17:39:36;0.10;;;0.10;;
12810;SDS011;6470;47.654;7.896;2023-02-21T17:42:02;0.08;;;0.08;;
12810;SDS011;6470;47.654;7.896;2023-02-21T17:44:28;0.00;;;0.00;;
12810;SDS011;6470;47.654;7.896;2023-02-21T17:46:54;0.10;;;0.10;;
12810;SDS011;6470;47.654;7.896;2023-02-21T17:49:22;0.10;;;0.10;;
12810;SDS011;6470;47.654;7.896;2023-02-21T17:51:50;0.00;;;0.00;;
12810;SDS011;6470;47.654;7.896;2023-02-21T17:54:18;0.10;;;0.10;;
12810;SDS011;6470;47.654;7.896;2023-02-21T17:56:46;0.10;;;0.10;;
12810;SDS011;6470;47.654;7.896;2023-02-21T17:59:12;0.10;;;0.10;;
12810;SDS011;6470;47.654;7.896;2023-02-21T18:01:38;0.20;;;0.20;;
12810;SDS011;6470;47.654;7.896;2023-02-21T18:04:07;0.00;;;0.00;;
12810;SDS011;6470;47.654;7.896;2023-02-21T18:06:33;0.10;;;0.10;;
12810;SDS011;6470;47.654;7.896;2023-02-21T18:08:59;0.05;;;0.05;;
12810;SDS011;6470;47.654;7.896;2023-02-21T18:11:26;0.10;;;0.10;;
12810;SDS011;6470;47.654;7.896;2023-02-21T18:13:52;0.10;;;0.10;;
12810;SDS011;6470;47.654;7.896;2023-02-21T18:16:20;0.10;;;0.10;;
12810;SDS011;6470;47.654;7.896;2023-02-21T18:18:45;0.10;;;0.10;;
12810;SDS011;6470;47.654;7.896;2023-02-21T18:21:11;0.10;;;0.10;;
12810;SDS011;6470;47.654;7.896;2023-02-21T18:23:39;0.10;;;0.10;;
12810;SDS011;6470;47.654;7.896;2023-02-21T18:26:08;0.20;;;0.20;;
12810;SDS011;6470;47.654;7.896;2023-02-21T18:28:36;0.03;;;0.03;;
12810;SDS011;6470;47.654;7.896;2023-02-21T18:31:02;0.10;;;0.10;;